Andoya, Norway

2:00 PM CEST on October 21, 2014 (GMT +0200)
Andoya Air Base | Change Station
CLOSE
Current Station
Airport
Location: Andoya,
Elevation: 43 ft
Nearby Weather Stations

Elev 43 ft 69.29 °N, 16.14 °E | Updated 10 minutes ago

Clear
Clear
43 °F
Feels Like 34 °F
N
23
Wind Variable Wind from SE

Today
High -- | Low -- °F
--% Chance of Precip.
Yesterday
High -- | Low -- °F
Precip. -- in
8:28 AM 4:49 PM
Waning Crescent, 6% visible
Pressure 29.68 in
Visibility -9999.0 miles
Clouds
Windchill 34 °F
Dew Point 28 °F
Humidity 57%
Rainfall 0.00 in
Snow Depth Not available.
UV Not available.
Pollen Not available.
Air Quality Not available.
Flu Activity Not available.
METAR ENAN 211150Z 14020KT CAVOK 06/M02 Q1005 TEMPO 14025G35KT

More Conditions Fewer Conditions

Pressure 29.68 in
Visibility -9999.0 miles
Clouds
Windchill 34 °F
Dew Point 28 °F
Humidity 57%
Rainfall 0.00 in
Snow Depth Not available.
UV Not available.
Pollen Not available.
Air Quality Not available.
Flu Activity Not available.
METAR ENAN 211150Z 14020KT CAVOK 06/M02 Q1005 TEMPO 14025G35KT

More Conditions Fewer Conditions

10-Day Weather Forecast

Almanac

Astronomy

Oct. 21, 2014 Rise Set
Actual Time 8:28 AM CEST 4:49 PM CEST
Civil Twilight 7:25 AM CEST 5:52 PM CEST
Nautical Twilight 6:16 AM CEST 7:01 PM CEST
Astronomical Twilight 5:07 AM CEST 8:09 PM CEST
Moon 4:41 AM CEST 4:35 PM CEST
Length of Visible Light 10h 27m
Length of Day
8h 20m
Tomorrow will be 8m 47s shorter.
Waning Crescent, 6% of the Moon is Illuminated
Today
Waning Crescent
Oct 23
New
Oct 30
First Quarter
Nov 6
Full
Nov 14
Last Quarter

Yesterday's Extremes

Country Highs Country Lows

Community

WunderPhotos

Upload Photos

1,763,640 photos uploaded!

Nearby

Snow Depth

Not available.

Earthquake Activity

City Distance Mag. Time & Date
No recent earthquake activity has been reported nearby.
Minimum magnitude displayed is 2.5.

Coastal Water Temperatures

Place Temperature
No Stations Reporting

Nearby Weather Stations